sensor_id;sensor_type;location;lat;lon;timestamp;temperature;humidity
61253;DHT22;47127;47.516;8.596;2023-06-26T00:00:20;20.90;99.90
61253;DHT22;47127;47.516;8.596;2023-06-26T00:02:46;20.90;99.90
61253;DHT22;47127;47.516;8.596;2023-06-26T00:05:11;20.80;99.90
61253;DHT22;47127;47.516;8.596;2023-06-26T00:07:37;20.90;99.90
61253;DHT22;47127;47.516;8.596;2023-06-26T00:10:03;20.80;99.90
61253;DHT22;47127;47.516;8.596;2023-06-26T00:12:30;20.80;99.90
61253;DHT22;47127;47.516;8.596;2023-06-26T00:14:56;20.90;99.90
61253;DHT22;47127;47.516;8.596;2023-06-26T00:17:21;20.90;99.90
61253;DHT22;47127;47.516;8.596;2023-06-26T00:19:48;20.90;99.90
61253;DHT22;47127;47.516;8.596;2023-06-26T00:22:13;20.90;99.90
61253;DHT22;47127;47.516;8.596;2023-06-26T00:24:41;21.00;99.90
61253;DHT22;47127;47.516;8.596;2023-06-26T00:27:06;21.00;99.90
61253;DHT22;47127;47.516;8.596;2023-06-26T00:29:32;20.90;99.90
61253;DHT22;47127;47.516;8.596;2023-06-26T00:31:58;21.00;99.90
61253;DHT22;47127;47.516;8.596;2023-06-26T00:34:23;20.90;99.90
61253;DHT22;47127;47.516;8.596;2023-06-26T00:36:49;20.90;99.90
61253;DHT22;47127;47.516;8.596;2023-06-26T00:39:15;21.00;99.90
61253;DHT22;47127;47.516;8.596;2023-06-26T00:41:40;21.00;99.90
61253;DHT22;47127;47.516;8.596;2023-06-26T00:44:06;20.80;99.90
61253;DHT22;47127;47.516;8.596;2023-06-26T00:46:32;20.80;99.90
61253;DHT22;47127;47.516;8.596;2023-06-26T00:49:03;20.80;99.90
61253;DHT22;47127;47.516;8.596;2023-06-26T00:51:29;20.80;99.90
61253;DHT22;47127;47.516;8.596;2023-06-26T00:53:56;20.80;99.90
61253;DHT22;47127;47.516;8.596;2023-06-26T00:56:22;20.70;99.90
61253;DHT22;47127;47.516;8.596;2023-06-26T00:58:48;20.60;99.90
61253;DHT22;47127;47.516;8.596;2023-06-26T01:01:14;20.40;99.90
61253;DHT22;47127;47.516;8.596;2023-06-26T01:03:48;20.40;99.90
61253;DHT22;47127;47.516;8.596;2023-06-26T01:06:20;20.40;99.90
61253;DHT22;47127;47.516;8.596;2023-06-26T01:08:47;20.40;99.90
61253;DHT22;47127;47.516;8.596;2023-06-26T01:11:13;20.40;99.90
61253;DHT22;47127;47.516;8.596;2023-06-26T01:13:41;20.30;99.90
61253;DHT22;47127;47.516;8.596;2023-06-26T01:16:07;20.40;99.90
61253;DHT22;47127;47.516;8.596;2023-06-26T01:18:37;20.40;99.90
61253;DHT22;47127;47.516;8.596;2023-06-26T01:21:07;20.30;99.90
61253;DHT22;47127;47.516;8.596;2023-06-26T01:26:27;20.20;99.90
61253;DHT22;47127;47.516;8.596;2023-06-26T01:28:57;20.20;99.90
61253;DHT22;47127;47.516;8.596;2023-06-26T01:31:24;20.10;99.90
61253;DHT22;47127;47.516;8.596;2023-06-26T01:33:50;20.10;99.90
61253;DHT22;47127;47.516;8.596;2023-06-26T01:36:16;20.10;99.90
61253;DHT22;47127;47.516;8.596;2023-06-26T01:38:42;20.00;99.90
61253;DHT22;47127;47.516;8.596;2023-06-26T01:41:07;20.00;99.90
61253;DHT22;47127;47.516;8.596;2023-06-26T01:46:25;19.90;99.90
61253;DHT22;47127;47.516;8.596;2023-06-26T01:52:17;19.90;99.90
61253;DHT22;47127;47.516;8.596;2023-06-26T01:55:03;20.10;99.90
61253;DHT22;47127;47.516;8.596;2023-06-26T01:57:31;20.80;99.90
61253;DHT22;47127;47.516;8.596;2023-06-26T01:59:59;20.20;99.90
61253;DHT22;47127;47.516;8.596;2023-06-26T02:02:25;20.20;99.90
61253;DHT22;47127;47.516;8.596;2023-06-26T02:04:51;20.10;99.90
61253;DHT22;47127;47.516;8.596;2023-06-26T02:07:17;20.00;99.90
61253;DHT22;47127;47.516;8.596;2023-06-26T02:09:43;20.00;99.90
61253;DHT22;47127;47.516;8.596;2023-06-26T02:12:09;20.00;99.90
61253;DHT22;47127;47.516;8.596;2023-06-26T02:14:34;20.00;99.90
61253;DHT22;47127;47.516;8.596;2023-06-26T02:17:02;20.00;99.90
61253;DHT22;47127;47.516;8.596;2023-06-26T02:19:27;19.90;99.90
61253;DHT22;47127;47.516;8.596;2023-06-26T02:21:54;19.90;99.90
61253;DHT22;47127;47.516;8.596;2023-06-26T02:24:19;19.80;99.90
61253;DHT22;47127;47.516;8.596;2023-06-26T02:26:45;19.70;99.90
61253;DHT22;47127;47.516;8.596;2023-06-26T02:29:12;19.60;99.90
61253;DHT22;47127;47.516;8.596;2023-06-26T02:31:39;19.70;99.90
61253;DHT22;47127;47.516;8.596;2023-06-26T02:34:04;19.60;99.90
61253;DHT22;47127;47.516;8.596;2023-06-26T02:36:31;19.60;99.90
61253;DHT22;47127;47.516;8.596;2023-06-26T02:38:57;19.60;99.90
61253;DHT22;47127;47.516;8.596;2023-06-26T02:41:22;19.50;99.90
61253;DHT22;47127;47.516;8.596;2023-06-26T02:43:48;19.40;99.90
61253;DHT22;47127;47.516;8.596;2023-06-26T02:46:13;19.50;99.90
61253;DHT22;47127;47.516;8.596;2023-06-26T02:48:39;19.40;99.90
61253;DHT22;47127;47.516;8.596;2023-06-26T02:51:05;19.50;99.90
61253;DHT22;47127;47.516;8.596;2023-06-26T02:53:31;19.60;99.90
61253;DHT22;47127;47.516;8.596;2023-06-26T02:55:58;19.60;99.90
61253;DHT22;47127;47.516;8.596;2023-06-26T02:58:24;19.60;99.90
61253;DHT22;47127;47.516;8.596;2023-06-26T03:00:49;19.60;99.90
61253;DHT22;47127;47.516;8.596;2023-06-26T03:03:15;19.70;99.90
61253;DHT22;47127;47.516;8.596;2023-06-26T03:05:40;19.70;99.90
61253;DHT22;47127;47.516;8.596;2023-06-26T03:08:06;19.60;99.90
61253;DHT22;47127;47.516;8.596;2023-06-26T03:10:32;19.70;99.90
61253;DHT22;47127;47.516;8.596;2023-06-26T03:12:57;19.60;99.90
61253;DHT22;47127;47.516;8.596;2023-06-26T03:15:23;19.60;99.90
61253;DHT22;47127;47.516;8.596;2023-06-26T03:17:49;19.60;99.90
61253;DHT22;47127;47.516;8.596;2023-06-26T03:20:14;19.50;99.90
61253;DHT22;47127;47.516;8.596;2023-06-26T03:22:42;19.60;99.90
61253;DHT22;47127;47.516;8.596;2023-06-26T03:25:09;19.60;99.90
61253;DHT22;47127;47.516;8.596;2023-06-26T03:27:34;19.50;99.90
61253;DHT22;47127;47.516;8.596;2023-06-26T03:30:00;19.40;99.90
61253;DHT22;47127;47.516;8.596;2023-06-26T03:32:25;19.50;99.90
61253;DHT22;47127;47.516;8.596;2023-06-26T03:34:51;19.50;99.90
61253;DHT22;47127;47.516;8.596;2023-06-26T03:37:18;19.50;99.90
61253;DHT22;47127;47.516;8.596;2023-06-26T03:39:44;19.50;99.90
61253;DHT22;47127;47.516;8.596;2023-06-26T03:42:09;19.60;99.90
61253;DHT22;47127;47.516;8.596;2023-06-26T03:44:35;19.60;99.90
61253;DHT22;47127;47.516;8.596;2023-06-26T03:47:00;19.70;99.90
61253;DHT22;47127;47.516;8.596;2023-06-26T03:49:26;19.70;99.90
61253;DHT22;47127;47.516;8.596;2023-06-26T03:51:51;19.60;99.90
61253;DHT22;47127;47.516;8.596;2023-06-26T03:54:18;19.50;99.90
61253;DHT22;47127;47.516;8.596;2023-06-26T03:56:44;19.50;99.90
61253;DHT22;47127;47.516;8.596;2023-06-26T03:59:10;19.50;99.90
61253;DHT22;47127;47.516;8.596;2023-06-26T04:01:37;19.60;99.90
61253;DHT22;47127;47.516;8.596;2023-06-26T04:04:03;19.60;99.90
61253;DHT22;47127;47.516;8.596;2023-06-26T04:06:29;19.60;99.90
61253;DHT22;47127;47.516;8.596;2023-06-26T04:08:57;19.60;99.90
61253;DHT22;47127;47.516;8.596;2023-06-26T04:11:22;19.60;99.90
61253;DHT22;47127;47.516;8.596;2023-06-26T04:13:48;19.50;99.90
61253;DHT22;47127;47.516;8.596;2023-06-26T04:16:13;19.60;99.90
61253;DHT22;47127;47.516;8.596;2023-06-26T04:18:39;19.70;99.90
61253;DHT22;47127;47.516;8.596;2023-06-26T04:21:11;19.80;99.90
61253;DHT22;47127;47.516;8.596;2023-06-26T04:23:38;19.80;99.90
61253;DHT22;47127;47.516;8.596;2023-06-26T04:26:04;19.90;99.90
61253;DHT22;47127;47.516;8.596;2023-06-26T04:28:31;20.00;99.90
61253;DHT22;47127;47.516;8.596;2023-06-26T04:30:57;20.00;99.90
61253;DHT22;47127;47.516;8.596;2023-06-26T04:33:25;19.90;99.90
61253;DHT22;47127;47.516;8.596;2023-06-26T04:35:53;20.00;99.90
61253;DHT22;47127;47.516;8.596;2023-06-26T04:38:20;20.00;99.90
61253;DHT22;47127;47.516;8.596;2023-06-26T04:40:47;19.90;99.90
61253;DHT22;47127;47.516;8.596;2023-06-26T04:43:12;19.90;99.90
61253;DHT22;47127;47.516;8.596;2023-06-26T04:45:39;20.00;99.90
61253;DHT22;47127;47.516;8.596;2023-06-26T04:48:05;20.10;99.90
61253;DHT22;47127;47.516;8.596;2023-06-26T04:50:34;20.10;99.90
61253;DHT22;47127;47.516;8.596;2023-06-26T04:53:01;20.00;99.90
61253;DHT22;47127;47.516;8.596;2023-06-26T04:55:27;20.10;99.90
61253;DHT22;47127;47.516;8.596;2023-06-26T04:57:54;20.30;99.90
61253;DHT22;47127;47.516;8.596;2023-06-26T05:00:20;20.40;99.90
61253;DHT22;47127;47.516;8.596;2023-06-26T05:02:45;20.30;99.90
61253;DHT22;47127;47.516;8.596;2023-06-26T05:05:11;20.40;99.90
61253;DHT22;47127;47.516;8.596;2023-06-26T05:07:37;20.50;99.90
61253;DHT22;47127;47.516;8.596;2023-06-26T05:10:03;20.60;99.90
61253;DHT22;47127;47.516;8.596;2023-06-26T05:12:29;20.70;99.90
61253;DHT22;47127;47.516;8.596;2023-06-26T05:14:54;20.80;99.90
61253;DHT22;47127;47.516;8.596;2023-06-26T05:17:20;21.00;99.90
61253;DHT22;47127;47.516;8.596;2023-06-26T05:19:46;21.10;99.90
61253;DHT22;47127;47.516;8.596;2023-06-26T05:22:12;21.20;99.90
61253;DHT22;47127;47.516;8.596;2023-06-26T05:24:39;21.30;99.90
61253;DHT22;47127;47.516;8.596;2023-06-26T05:27:05;21.40;99.90
61253;DHT22;47127;47.516;8.596;2023-06-26T05:29:32;21.50;99.90
61253;DHT22;47127;47.516;8.596;2023-06-26T05:31:58;21.50;99.90
61253;DHT22;47127;47.516;8.596;2023-06-26T05:34:24;21.60;99.90
61253;DHT22;47127;47.516;8.596;2023-06-26T05:37:00;21.70;99.90
61253;DHT22;47127;47.516;8.596;2023-06-26T05:39:30;21.80;99.90
61253;DHT22;47127;47.516;8.596;2023-06-26T05:41:57;21.90;99.90
61253;DHT22;47127;47.516;8.596;2023-06-26T05:44:23;22.00;99.90
61253;DHT22;47127;47.516;8.596;2023-06-26T05:46:49;22.00;99.90
61253;DHT22;47127;47.516;8.596;2023-06-26T05:49:14;22.10;99.90
61253;DHT22;47127;47.516;8.596;2023-06-26T05:51:40;22.20;99.90
61253;DHT22;47127;47.516;8.596;2023-06-26T05:54:06;22.30;99.90
61253;DHT22;47127;47.516;8.596;2023-06-26T05:56:33;22.40;99.90
61253;DHT22;47127;47.516;8.596;2023-06-26T05:59:01;22.40;99.90
61253;DHT22;47127;47.516;8.596;2023-06-26T06:01:28;22.50;99.90
61253;DHT22;47127;47.516;8.596;2023-06-26T06:03:54;22.60;99.90
61253;DHT22;47127;47.516;8.596;2023-06-26T06:06:19;22.70;99.90
61253;DHT22;47127;47.516;8.596;2023-06-26T06:08:45;22.90;99.90
61253;DHT22;47127;47.516;8.596;2023-06-26T06:11:13;22.90;99.90
61253;DHT22;47127;47.516;8.596;2023-06-26T06:13:40;23.00;99.90
61253;DHT22;47127;47.516;8.596;2023-06-26T06:16:06;23.10;99.90
61253;DHT22;47127;47.516;8.596;2023-06-26T06:18:32;23.20;99.90
61253;DHT22;47127;47.516;8.596;2023-06-26T06:20:57;23.30;99.90
61253;DHT22;47127;47.516;8.596;2023-06-26T06:23:23;23.40;99.90
61253;DHT22;47127;47.516;8.596;2023-06-26T06:25:48;23.50;99.90
61253;DHT22;47127;47.516;8.596;2023-06-26T06:28:14;23.60;99.90
61253;DHT22;47127;47.516;8.596;2023-06-26T06:30:41;23.70;99.90
61253;DHT22;47127;47.516;8.596;2023-06-26T06:33:07;23.80;99.90
61253;DHT22;47127;47.516;8.596;2023-06-26T06:35:33;24.00;99.90
61253;DHT22;47127;47.516;8.596;2023-06-26T06:37:58;24.10;99.90
61253;DHT22;47127;47.516;8.596;2023-06-26T06:40:24;24.20;99.90
61253;DHT22;47127;47.516;8.596;2023-06-26T06:42:51;24.30;99.90
61253;DHT22;47127;47.516;8.596;2023-06-26T06:45:17;24.10;99.90
61253;DHT22;47127;47.516;8.596;2023-06-26T06:47:42;24.10;99.90
61253;DHT22;47127;47.516;8.596;2023-06-26T06:50:08;24.40;99.90
61253;DHT22;47127;47.516;8.596;2023-06-26T06:52:36;24.50;99.90
61253;DHT22;47127;47.516;8.596;2023-06-26T06:55:01;24.60;99.90
61253;DHT22;47127;47.516;8.596;2023-06-26T06:57:32;24.60;99.60
61253;DHT22;47127;47.516;8.596;2023-06-26T07:00:02;24.60;99.10
61253;DHT22;47127;47.516;8.596;2023-06-26T07:02:30;24.60;99.10
61253;DHT22;47127;47.516;8.596;2023-06-26T07:04:55;24.60;98.80
61253;DHT22;47127;47.516;8.596;2023-06-26T07:07:21;24.60;98.90
61253;DHT22;47127;47.516;8.596;2023-06-26T07:09:46;24.60;98.30
61253;DHT22;47127;47.516;8.596;2023-06-26T07:12:12;24.60;97.80
61253;DHT22;47127;47.516;8.596;2023-06-26T07:14:38;24.60;99.10
61253;DHT22;47127;47.516;8.596;2023-06-26T07:17:04;24.70;98.90
61253;DHT22;47127;47.516;8.596;2023-06-26T07:19:29;24.60;97.70
61253;DHT22;47127;47.516;8.596;2023-06-26T07:21:55;24.60;97.80
61253;DHT22;47127;47.516;8.596;2023-06-26T07:24:20;24.60;98.20
61253;DHT22;47127;47.516;8.596;2023-06-26T07:26:46;24.70;98.20
61253;DHT22;47127;47.516;8.596;2023-06-26T07:29:11;24.70;96.90
61253;DHT22;47127;47.516;8.596;2023-06-26T07:31:37;24.90;97.20
61253;DHT22;47127;47.516;8.596;2023-06-26T07:34:03;24.90;96.50
61253;DHT22;47127;47.516;8.596;2023-06-26T07:36:28;24.90;96.60
61253;DHT22;47127;47.516;8.596;2023-06-26T07:38:54;25.10;95.90
61253;DHT22;47127;47.516;8.596;2023-06-26T07:41:19;25.10;96.00
61253;DHT22;47127;47.516;8.596;2023-06-26T07:43:45;25.10;96.10
61253;DHT22;47127;47.516;8.596;2023-06-26T07:46:11;25.30;96.80
61253;DHT22;47127;47.516;8.596;2023-06-26T07:48:36;25.40;95.90
61253;DHT22;47127;47.516;8.596;2023-06-26T07:51:02;25.40;95.70
61253;DHT22;47127;47.516;8.596;2023-06-26T07:53:27;25.50;95.10
61253;DHT22;47127;47.516;8.596;2023-06-26T07:55:53;25.50;95.00
61253;DHT22;47127;47.516;8.596;2023-06-26T07:58:18;25.50;94.30
61253;DHT22;47127;47.516;8.596;2023-06-26T08:00:44;25.50;94.70
61253;DHT22;47127;47.516;8.596;2023-06-26T08:03:09;25.50;94.60
61253;DHT22;47127;47.516;8.596;2023-06-26T08:05:35;25.60;94.00
61253;DHT22;47127;47.516;8.596;2023-06-26T08:08:00;25.80;94.10
61253;DHT22;47127;47.516;8.596;2023-06-26T08:10:28;26.00;94.00
61253;DHT22;47127;47.516;8.596;2023-06-26T08:12:54;26.10;93.60
61253;DHT22;47127;47.516;8.596;2023-06-26T08:15:20;26.20;93.20
61253;DHT22;47127;47.516;8.596;2023-06-26T08:17:47;26.00;93.60
61253;DHT22;47127;47.516;8.596;2023-06-26T08:20:12;26.00;93.20
61253;DHT22;47127;47.516;8.596;2023-06-26T08:22:38;25.90;93.30
61253;DHT22;47127;47.516;8.596;2023-06-26T08:25:04;25.90;93.40
61253;DHT22;47127;47.516;8.596;2023-06-26T08:27:32;26.00;93.10
61253;DHT22;47127;47.516;8.596;2023-06-26T08:29:57;26.10;93.40
61253;DHT22;47127;47.516;8.596;2023-06-26T08:32:24;26.30;92.40
61253;DHT22;47127;47.516;8.596;2023-06-26T08:34:50;26.30;92.40
61253;DHT22;47127;47.516;8.596;2023-06-26T08:37:16;26.40;91.40
61253;DHT22;47127;47.516;8.596;2023-06-26T08:39:41;26.40;92.10
61253;DHT22;47127;47.516;8.596;2023-06-26T08:42:08;26.40;91.20
61253;DHT22;47127;47.516;8.596;2023-06-26T08:44:33;26.30;91.30
61253;DHT22;47127;47.516;8.596;2023-06-26T08:47:00;26.40;91.80
61253;DHT22;47127;47.516;8.596;2023-06-26T08:52:22;26.50;91.20
61253;DHT22;47127;47.516;8.596;2023-06-26T08:54:56;26.30;90.80
61253;DHT22;47127;47.516;8.596;2023-06-26T08:57:23;26.60;90.10
61253;DHT22;47127;47.516;8.596;2023-06-26T08:59:49;26.40;90.90
61253;DHT22;47127;47.516;8.596;2023-06-26T09:02:14;26.50;91.30
61253;DHT22;47127;47.516;8.596;2023-06-26T09:04:41;26.60;90.30
61253;DHT22;47127;47.516;8.596;2023-06-26T09:07:07;26.70;90.20
61253;DHT22;47127;47.516;8.596;2023-06-26T09:09:32;26.80;90.90
61253;DHT22;47127;47.516;8.596;2023-06-26T09:11:58;26.90;90.70
61253;DHT22;47127;47.516;8.596;2023-06-26T09:14:24;26.90;89.50
61253;DHT22;47127;47.516;8.596;2023-06-26T09:16:50;27.00;89.20
61253;DHT22;47127;47.516;8.596;2023-06-26T09:19:15;26.90;88.40
61253;DHT22;47127;47.516;8.596;2023-06-26T09:21:42;26.90;88.70
61253;DHT22;47127;47.516;8.596;2023-06-26T09:24:11;27.00;88.90
61253;DHT22;47127;47.516;8.596;2023-06-26T09:26:38;27.20;88.20
61253;DHT22;47127;47.516;8.596;2023-06-26T09:29:05;27.10;86.00
61253;DHT22;47127;47.516;8.596;2023-06-26T09:31:33;27.20;88.20
61253;DHT22;47127;47.516;8.596;2023-06-26T09:34:01;27.40;86.20
61253;DHT22;47127;47.516;8.596;2023-06-26T09:36:30;27.40;85.80
61253;DHT22;47127;47.516;8.596;2023-06-26T09:39:06;27.50;85.80
61253;DHT22;47127;47.516;8.596;2023-06-26T09:41:36;27.50;87.90
61253;DHT22;47127;47.516;8.596;2023-06-26T09:44:03;27.80;84.80
61253;DHT22;47127;47.516;8.596;2023-06-26T09:46:30;27.90;87.70
61253;DHT22;47127;47.516;8.596;2023-06-26T09:49:10;27.90;86.40
61253;DHT22;47127;47.516;8.596;2023-06-26T09:51:38;27.90;86.20
61253;DHT22;47127;47.516;8.596;2023-06-26T09:54:04;27.90;86.70
61253;DHT22;47127;47.516;8.596;2023-06-26T09:56:31;28.00;86.30
61253;DHT22;47127;47.516;8.596;2023-06-26T09:58:59;28.10;87.00
61253;DHT22;47127;47.516;8.596;2023-06-26T10:01:25;28.30;86.10
61253;DHT22;47127;47.516;8.596;2023-06-26T10:03:51;28.40;85.90
61253;DHT22;47127;47.516;8.596;2023-06-26T10:06:33;28.30;84.90
61253;DHT22;47127;47.516;8.596;2023-06-26T10:08:59;28.30;83.80
61253;DHT22;47127;47.516;8.596;2023-06-26T10:17:26;28.40;82.20
61253;DHT22;47127;47.516;8.596;2023-06-26T10:19:53;28.60;83.10
61253;DHT22;47127;47.516;8.596;2023-06-26T10:22:22;28.80;79.60
61253;DHT22;47127;47.516;8.596;2023-06-26T10:24:50;28.70;78.30
61253;DHT22;47127;47.516;8.596;2023-06-26T10:27:19;28.50;79.60
61253;DHT22;47127;47.516;8.596;2023-06-26T10:29:49;28.50;78.80
61253;DHT22;47127;47.516;8.596;2023-06-26T10:32:16;28.30;77.00
61253;DHT22;47127;47.516;8.596;2023-06-26T10:34:43;28.40;77.70
61253;DHT22;47127;47.516;8.596;2023-06-26T10:37:09;28.50;77.00
61253;DHT22;47127;47.516;8.596;2023-06-26T10:42:15;28.90;75.10
61253;DHT22;47127;47.516;8.596;2023-06-26T10:44:45;29.10;74.80
61253;DHT22;47127;47.516;8.596;2023-06-26T10:47:12;28.90;74.70
61253;DHT22;47127;47.516;8.596;2023-06-26T10:49:38;28.90;74.40
61253;DHT22;47127;47.516;8.596;2023-06-26T10:52:07;28.90;74.70
61253;DHT22;47127;47.516;8.596;2023-06-26T10:54:34;29.00;76.40
61253;DHT22;47127;47.516;8.596;2023-06-26T10:57:01;29.20;74.30
61253;DHT22;47127;47.516;8.596;2023-06-26T10:59:30;29.10;74.70
61253;DHT22;47127;47.516;8.596;2023-06-26T11:01:57;29.30;74.30
61253;DHT22;47127;47.516;8.596;2023-06-26T11:04:40;29.20;74.00
61253;DHT22;47127;47.516;8.596;2023-06-26T11:07:25;29.10;75.20
61253;DHT22;47127;47.516;8.596;2023-06-26T11:10:02;29.00;76.20
61253;DHT22;47127;47.516;8.596;2023-06-26T11:12:36;28.90;77.30
61253;DHT22;47127;47.516;8.596;2023-06-26T11:15:12;28.90;76.20
61253;DHT22;47127;47.516;8.596;2023-06-26T11:17:39;29.00;77.20
61253;DHT22;47127;47.516;8.596;2023-06-26T11:20:06;29.40;75.80
61253;DHT22;47127;47.516;8.596;2023-06-26T11:22:34;29.50;75.70
61253;DHT22;47127;47.516;8.596;2023-06-26T11:25:01;29.40;77.10
61253;DHT22;47127;47.516;8.596;2023-06-26T11:30:10;29.20;77.90
61253;DHT22;47127;47.516;8.596;2023-06-26T11:32:38;29.10;77.40
61253;DHT22;47127;47.516;8.596;2023-06-26T11:35:04;29.20;77.70
61253;DHT22;47127;47.516;8.596;2023-06-26T11:37:31;29.40;78.50
61253;DHT22;47127;47.516;8.596;2023-06-26T11:39:57;29.50;78.00
61253;DHT22;47127;47.516;8.596;2023-06-26T11:42:24;29.30;78.70
61253;DHT22;47127;47.516;8.596;2023-06-26T11:44:53;29.40;78.30
61253;DHT22;47127;47.516;8.596;2023-06-26T11:47:20;29.50;78.70
61253;DHT22;47127;47.516;8.596;2023-06-26T11:49:47;29.40;80.40
61253;DHT22;47127;47.516;8.596;2023-06-26T11:52:14;29.60;79.40
61253;DHT22;47127;47.516;8.596;2023-06-26T11:54:41;29.70;79.90
61253;DHT22;47127;47.516;8.596;2023-06-26T11:57:07;29.60;79.70
61253;DHT22;47127;47.516;8.596;2023-06-26T11:59:34;29.60;79.90
61253;DHT22;47127;47.516;8.596;2023-06-26T12:02:05;29.40;80.40
61253;DHT22;47127;47.516;8.596;2023-06-26T12:04:31;29.30;81.80
61253;DHT22;47127;47.516;8.596;2023-06-26T12:06:57;29.40;81.70
61253;DHT22;47127;47.516;8.596;2023-06-26T12:09:24;29.50;80.70
61253;DHT22;47127;47.516;8.596;2023-06-26T12:11:53;29.70;79.40
61253;DHT22;47127;47.516;8.596;2023-06-26T12:14:22;29.70;79.50
61253;DHT22;47127;47.516;8.596;2023-06-26T12:16:48;29.70;79.50
61253;DHT22;47127;47.516;8.596;2023-06-26T12:19:15;29.70;80.80
61253;DHT22;47127;47.516;8.596;2023-06-26T12:24:14;30.00;81.70
61253;DHT22;47127;47.516;8.596;2023-06-26T12:26:45;29.90;79.40
61253;DHT22;47127;47.516;8.596;2023-06-26T12:29:20;29.60;81.10
61253;DHT22;47127;47.516;8.596;2023-06-26T12:31:50;29.50;80.80
61253;DHT22;47127;47.516;8.596;2023-06-26T12:34:25;29.60;80.10
61253;DHT22;47127;47.516;8.596;2023-06-26T12:36:52;29.40;79.70
61253;DHT22;47127;47.516;8.596;2023-06-26T12:39:19;29.00;82.20
61253;DHT22;47127;47.516;8.596;2023-06-26T12:41:53;29.00;81.00
61253;DHT22;47127;47.516;8.596;2023-06-26T12:44:27;28.90;81.10
61253;DHT22;47127;47.516;8.596;2023-06-26T12:47:00;29.20;80.20
61253;DHT22;47127;47.516;8.596;2023-06-26T12:49:30;29.20;80.30
61253;DHT22;47127;47.516;8.596;2023-06-26T12:51:57;29.40;80.40
61253;DHT22;47127;47.516;8.596;2023-06-26T12:54:23;29.40;81.10
61253;DHT22;47127;47.516;8.596;2023-06-26T12:56:48;29.60;80.00
61253;DHT22;47127;47.516;8.596;2023-06-26T12:59:14;29.50;79.70
61253;DHT22;47127;47.516;8.596;2023-06-26T13:01:39;29.50;80.10
61253;DHT22;47127;47.516;8.596;2023-06-26T13:04:06;29.50;79.40
61253;DHT22;47127;47.516;8.596;2023-06-26T13:06:31;29.70;78.80
61253;DHT22;47127;47.516;8.596;2023-06-26T13:08:58;29.80;79.50
61253;DHT22;47127;47.516;8.596;2023-06-26T13:11:23;30.00;77.80
61253;DHT22;47127;47.516;8.596;2023-06-26T13:13:49;29.90;77.90
61253;DHT22;47127;47.516;8.596;2023-06-26T13:16:15;29.70;78.20
61253;DHT22;47127;47.516;8.596;2023-06-26T13:18:41;29.50;76.20
61253;DHT22;47127;47.516;8.596;2023-06-26T13:21:07;29.30;76.00
61253;DHT22;47127;47.516;8.596;2023-06-26T13:23:32;29.20;75.30
61253;DHT22;47127;47.516;8.596;2023-06-26T13:25:58;29.20;74.80
61253;DHT22;47127;47.516;8.596;2023-06-26T13:28:23;29.10;74.90
61253;DHT22;47127;47.516;8.596;2023-06-26T13:30:49;28.70;75.50
61253;DHT22;47127;47.516;8.596;2023-06-26T13:33:14;28.80;75.70
61253;DHT22;47127;47.516;8.596;2023-06-26T13:35:41;28.80;75.80
61253;DHT22;47127;47.516;8.596;2023-06-26T13:38:06;29.10;76.40
61253;DHT22;47127;47.516;8.596;2023-06-26T13:40:32;29.20;75.30
61253;DHT22;47127;47.516;8.596;2023-06-26T13:42:57;29.60;74.80
61253;DHT22;47127;47.516;8.596;2023-06-26T13:45:24;29.50;74.90
61253;DHT22;47127;47.516;8.596;2023-06-26T13:47:50;29.70;74.60
61253;DHT22;47127;47.516;8.596;2023-06-26T13:50:16;29.50;74.00
61253;DHT22;47127;47.516;8.596;2023-06-26T13:52:41;29.60;75.10
61253;DHT22;47127;47.516;8.596;2023-06-26T13:55:07;29.90;73.10
61253;DHT22;47127;47.516;8.596;2023-06-26T13:57:32;29.80;73.20
61253;DHT22;47127;47.516;8.596;2023-06-26T13:59:59;29.90;72.80
61253;DHT22;47127;47.516;8.596;2023-06-26T14:02:24;30.00;72.20
61253;DHT22;47127;47.516;8.596;2023-06-26T14:04:50;29.80;72.50
61253;DHT22;47127;47.516;8.596;2023-06-26T14:07:15;29.50;73.90
61253;DHT22;47127;47.516;8.596;2023-06-26T14:09:41;29.70;73.10
61253;DHT22;47127;47.516;8.596;2023-06-26T14:12:07;29.80;73.00
61253;DHT22;47127;47.516;8.596;2023-06-26T14:14:33;29.40;73.90
61253;DHT22;47127;47.516;8.596;2023-06-26T14:16:59;29.70;74.00
61253;DHT22;47127;47.516;8.596;2023-06-26T14:19:25;30.00;74.80
61253;DHT22;47127;47.516;8.596;2023-06-26T14:21:51;30.20;74.60
61253;DHT22;47127;47.516;8.596;2023-06-26T14:24:16;30.40;73.40
61253;DHT22;47127;47.516;8.596;2023-06-26T14:26:42;30.20;72.60
61253;DHT22;47127;47.516;8.596;2023-06-26T14:29:07;30.00;72.60
61253;DHT22;47127;47.516;8.596;2023-06-26T14:31:37;30.00;71.60
61253;DHT22;47127;47.516;8.596;2023-06-26T14:34:03;29.80;72.20
61253;DHT22;47127;47.516;8.596;2023-06-26T14:36:28;29.90;71.60
61253;DHT22;47127;47.516;8.596;2023-06-26T14:38:57;30.10;71.60
61253;DHT22;47127;47.516;8.596;2023-06-26T14:41:24;29.80;72.20
61253;DHT22;47127;47.516;8.596;2023-06-26T14:43:50;29.70;71.50
61253;DHT22;47127;47.516;8.596;2023-06-26T14:46:16;29.70;71.60
61253;DHT22;47127;47.516;8.596;2023-06-26T14:48:41;29.70;71.80
61253;DHT22;47127;47.516;8.596;2023-06-26T14:51:07;29.90;70.50
61253;DHT22;47127;47.516;8.596;2023-06-26T14:53:32;29.80;70.90
61253;DHT22;47127;47.516;8.596;2023-06-26T14:55:58;30.00;70.50
61253;DHT22;47127;47.516;8.596;2023-06-26T14:58:23;30.40;69.40
61253;DHT22;47127;47.516;8.596;2023-06-26T15:00:49;30.20;69.00
61253;DHT22;47127;47.516;8.596;2023-06-26T15:03:16;30.00;70.90
61253;DHT22;47127;47.516;8.596;2023-06-26T15:05:41;30.20;70.20
61253;DHT22;47127;47.516;8.596;2023-06-26T15:08:07;30.40;67.40
61253;DHT22;47127;47.516;8.596;2023-06-26T15:10:32;30.50;67.60
61253;DHT22;47127;47.516;8.596;2023-06-26T15:12:59;30.70;65.00
61253;DHT22;47127;47.516;8.596;2023-06-26T15:15:26;30.60;64.10
61253;DHT22;47127;47.516;8.596;2023-06-26T15:17:53;30.30;65.50
61253;DHT22;47127;47.516;8.596;2023-06-26T15:20:21;30.30;65.20
61253;DHT22;47127;47.516;8.596;2023-06-26T15:22:46;30.40;63.70
61253;DHT22;47127;47.516;8.596;2023-06-26T15:25:12;30.00;60.60
61253;DHT22;47127;47.516;8.596;2023-06-26T15:27:39;30.20;62.70
61253;DHT22;47127;47.516;8.596;2023-06-26T15:30:05;30.40;64.10
61253;DHT22;47127;47.516;8.596;2023-06-26T15:32:32;30.40;63.60
61253;DHT22;47127;47.516;8.596;2023-06-26T15:34:58;30.30;65.90
61253;DHT22;47127;47.516;8.596;2023-06-26T15:37:24;30.10;66.60
61253;DHT22;47127;47.516;8.596;2023-06-26T15:39:49;30.40;65.50
61253;DHT22;47127;47.516;8.596;2023-06-26T15:42:15;30.50;64.50
61253;DHT22;47127;47.516;8.596;2023-06-26T15:44:41;30.60;63.70
61253;DHT22;47127;47.516;8.596;2023-06-26T15:47:08;30.90;62.60
61253;DHT22;47127;47.516;8.596;2023-06-26T15:49:34;31.00;63.10
61253;DHT22;47127;47.516;8.596;2023-06-26T15:52:02;31.00;63.50